Time;durP1;ratioP1;P1;durP2;ratioP2;P2;SDS_P1;SDS_P2;PMS_P1;PMS_P2;Temp;Humidity;BMP_temperature;BMP_pressure;BME280_temperature;BME280_humidity;BME280_pressure;Samples;Min_cycle;Max_cycle;Signal;HPM_P1;HPM_P2
2022/04/17 00:00:32;;;;;;;1.70;1.10;;;;;;;8.80;74.53;99260.42;1722275;80;21071;-92
2022/04/17 00:03:02;;;;;;;2.10;1.15;;;;;;;8.75;74.26;99261.77;1762792;79;21595;-90
2022/04/17 00:05:29;;;;;;;2.95;1.50;;;;;;;8.69;75.07;99259.27;1788217;79;21191;-91
2022/04/17 00:07:55;;;;;;;2.10;1.30;;;;;;;8.68;75.42;99254.98;1792576;79;21018;-92
2022/04/17 00:10:22;;;;;;;2.22;1.20;;;;;;;8.65;74.22;99255.86;1764848;81;21003;-91
2022/04/17 00:12:49;;;;;;;3.72;1.42;;;;;;;8.58;74.97;99258.59;1791300;80;20972;-91
2022/04/17 00:15:15;;;;;;;2.08;1.30;;;;;;;8.56;74.21;99261.19;1794309;79;21039;-91
2022/04/17 00:17:42;;;;;;;1.40;1.15;;;;;;;8.48;74.80;99272.95;1770582;81;21606;-91
2022/04/17 00:20:11;;;;;;;1.77;1.45;;;;;;;8.45;75.13;99270.39;1793290;80;21005;-91
2022/04/17 00:22:38;;;;;;;2.08;1.20;;;;;;;8.43;74.69;99266.97;1713349;80;21074;-91
2022/04/17 00:25:07;;;;;;;1.37;1.27;;;;;;;8.47;74.90;99272.52;1731113;82;21023;-91
2022/04/17 00:27:34;;;;;;;2.25;1.22;;;;;;;8.46;74.26;99265.64;1693307;81;21073;-93
2022/04/17 00:30:03;;;;;;;2.02;1.17;;;;;;;8.40;73.69;99273.47;1777958;78;21104;-91
2022/04/17 00:32:31;;;;;;;2.20;1.20;;;;;;;8.41;73.91;99273.02;1750950;77;21147;-93
2022/04/17 00:34:59;;;;;;;2.20;1.00;;;;;;;8.37;73.48;99272.20;1684448;79;21099;-90
2022/04/17 00:37:26;;;;;;;2.22;1.10;;;;;;;8.36;73.85;99271.36;1744311;80;21055;-91
2022/04/17 00:39:53;;;;;;;4.67;1.35;;;;;;;8.35;73.33;99276.55;1732838;82;21078;-89
2022/04/17 00:42:20;;;;;;;2.95;1.50;;;;;;;8.31;73.23;99277.02;1678494;80;21104;-90
2022/04/17 00:44:47;;;;;;;2.33;1.30;;;;;;;8.29;73.13;99280.52;1721014;80;21080;-92
2022/04/17 00:47:16;;;;;;;3.27;1.47;;;;;;;8.24;73.01;99284.92;1722738;81;21057;-92
2022/04/17 00:49:46;;;;;;;2.35;1.22;;;;;;;8.23;73.05;99296.14;1665729;84;21155;-91
2022/04/17 00:52:14;;;;;;;1.87;1.20;;;;;;;8.23;73.08;99294.84;1683792;82;21160;-81
2022/04/17 00:54:47;;;;;;;2.15;1.22;;;;;;;8.16;72.66;99299.25;1711400;84;21047;-85
2022/04/17 00:57:16;;;;;;;2.72;1.37;;;;;;;8.13;72.90;99301.41;1711257;84;20996;-84
2022/04/17 00:59:45;;;;;;;1.42;1.02;;;;;;;8.12;73.47;99304.05;1699314;83;21097;-91
2022/04/17 01:02:18;;;;;;;2.47;1.30;;;;;;;8.11;73.35;99303.61;1692326;81;21099;-91
2022/04/17 01:04:43;;;;;;;1.72;1.20;;;;;;;8.10;73.65;99300.63;1695612;81;21046;-91
2022/04/17 01:07:11;;;;;;;2.00;1.30;;;;;;;8.11;73.78;99303.61;1675323;82;21579;-94
2022/04/17 01:09:38;;;;;;;1.87;1.27;;;;;;;8.09;73.96;99294.56;1718889;81;21195;-92
2022/04/17 01:12:08;;;;;;;2.75;1.50;;;;;;;8.19;74.11;99298.34;1694537;81;21099;-92
2022/04/17 01:14:39;;;;;;;2.33;1.40;;;;;;;8.23;74.52;99298.73;1726310;80;21077;-90
2022/04/17 01:17:07;;;;;;;2.60;1.37;;;;;;;8.29;73.88;99296.05;1721070;81;21629;-91
2022/04/17 01:19:39;;;;;;;2.52;1.30;;;;;;;8.25;73.71;99300.41;1722687;80;21593;-91
2022/04/17 01:22:15;;;;;;;3.80;1.50;;;;;;;8.17;73.69;99299.20;1715157;81;21865;-91
2022/04/17 01:27:30;;;;;;;2.60;1.60;;;;;;;8.04;72.98;99304.13;1694228;85;21109;-91
2022/04/17 01:30:00;;;;;;;3.27;1.50;;;;;;;7.93;73.28;99299.50;1741468;82;21632;-91
2022/04/17 01:32:26;;;;;;;3.42;1.65;;;;;;;7.89;73.67;99299.12;1694284;84;21040;-92
2022/04/17 01:34:53;;;;;;;2.40;1.30;;;;;;;7.83;73.46;99301.78;1730345;82;21040;-90
2022/04/17 01:37:20;;;;;;;2.33;1.12;;;;;;;7.83;72.48;99307.80;1722110;83;20974;-89
2022/04/17 01:39:46;;;;;;;2.98;1.45;;;;;;;7.72;73.62;99307.92;1706729;83;21040;-90
2022/04/17 01:42:13;;;;;;;2.58;1.70;;;;;;;7.69;73.77;99306.65;1698787;80;21114;-92
2022/04/17 01:44:41;;;;;;;3.52;1.70;;;;;;;7.64;74.41;99307.15;1729981;82;21010;-94
2022/04/17 01:47:08;;;;;;;6.10;1.98;;;;;;;7.65;73.18;99308.84;1731166;82;21539;-91
2022/04/17 01:49:36;;;;;;;3.25;1.90;;;;;;;7.59;74.21;99305.47;1718044;81;21168;-93
2022/04/17 01:52:04;;;;;;;2.45;1.60;;;;;;;7.41;74.13;99270.28;1716967;80;21139;-90
2022/04/17 01:54:32;;;;;;;3.58;1.67;;;;;;;7.59;74.34;99308.91;1719574;81;21100;-90
2022/04/17 01:56:58;;;;;;;2.40;1.35;;;;;;;7.55;74.74;99299.02;1742455;79;21585;-90
2022/04/17 01:59:25;;;;;;;2.35;1.40;;;;;;;7.54;74.45;99301.61;1728215;82;21010;-90
2022/04/17 02:01:52;;;;;;;2.70;1.22;;;;;;;7.56;74.24;99301.20;1743745;82;20995;-90
2022/04/17 02:04:19;;;;;;;2.42;1.50;;;;;;;7.50;74.14;99301.22;1784859;79;21066;-91
2022/04/17 02:06:47;;;;;;;3.08;1.57;;;;;;;7.49;73.99;99294.35;1774429;78;21059;-91
2022/04/17 02:09:15;;;;;;;2.95;1.60;;;;;;;7.48;73.63;99301.67;1785551;79;21078;-91
2022/04/17 02:11:42;;;;;;;3.15;1.70;;;;;;;7.49;73.26;99302.96;1697090;79;21128;-90
2022/04/17 02:14:12;;;;;;;3.40;1.50;;;;;;;7.49;73.43;99299.08;1712900;84;21006;-89
2022/04/17 02:16:42;;;;;;;2.15;1.30;;;;;;;7.48;72.72;99296.50;1735501;81;21135;-93
2022/04/17 02:19:09;;;;;;;3.47;1.55;;;;;;;7.41;73.01;99297.45;1747613;80;21197;-90
2022/04/17 02:21:36;;;;;;;2.65;1.40;;;;;;;7.41;72.49;99296.16;1748403;82;20999;-90
2022/04/17 02:24:04;;;;;;;2.60;1.25;;;;;;;7.38;72.57;99303.48;1738454;82;21526;-91
2022/04/17 02:26:32;;;;;;;2.22;1.22;;;;;;;7.36;72.21;99296.17;1775002;79;21204;-90
2022/04/17 02:29:00;;;;;;;1.45;1.10;;;;;;;7.29;72.72;99301.84;1727742;78;21702;-90
2022/04/17 02:31:27;;;;;;;2.40;1.37;;;;;;;7.28;72.78;99307.91;1727779;79;21077;-90
2022/04/17 02:33:55;;;;;;;2.10;1.30;;;;;;;7.26;72.95;99294.13;1709531;77;21050;-91
2022/04/17 02:36:22;;;;;;;2.37;1.10;;;;;;;7.15;74.00;99289.03;1682725;85;21170;-91
2022/04/17 02:38:48;;;;;;;3.52;1.30;;;;;;;7.18;73.76;99290.72;1713652;80;21075;-90
2022/04/17 02:41:15;;;;;;;2.27;1.40;;;;;;;7.05;74.27;99293.00;1710746;84;21544;-89
2022/04/17 02:43:42;;;;;;;3.15;1.57;;;;;;;7.03;72.79;99288.28;1715092;84;21020;-91
2022/04/17 02:46:09;;;;;;;2.60;1.50;;;;;;;6.92;73.29;99286.64;1716741;84;21110;-89
2022/04/17 02:48:35;;;;;;;2.90;1.65;;;;;;;6.91;72.75;99291.38;1716423;83;20980;-91
2022/04/17 02:51:03;;;;;;;3.15;1.90;;;;;;;6.85;72.97;99297.03;1698516;84;22073;-91
2022/04/17 02:53:34;;;;;;;5.53;2.42;;;;;;;6.87;72.83;99306.92;1719048;82;21031;-93
2022/04/17 02:55:59;;;;;;;3.70;1.60;;;;;;;6.79;73.09;99307.41;1788901;80;21046;-92
2022/04/17 02:58:25;;;;;;;2.77;1.80;;;;;;;6.75;73.36;99305.27;1771472;81;21044;-92
2022/04/17 03:06:25;;;;;;;4.50;1.70;;;;;;;6.74;72.98;99310.00;1643892;87;21121;-90
2022/04/17 03:08:52;;;;;;;3.15;1.60;;;;;;;6.70;73.32;99315.61;1645162;87;21049;-89
2022/04/17 03:11:19;;;;;;;4.17;1.70;;;;;;;6.70;73.60;99309.15;1712135;82;21146;-89
2022/04/17 03:13:48;;;;;;;2.35;1.40;;;;;;;6.75;73.67;99314.31;1714437;84;21074;-90
2022/04/17 03:16:15;;;;;;;3.05;1.77;;;;;;;6.78;73.63;99319.45;1649954;82;21144;-90
2022/04/17 03:18:42;;;;;;;2.85;1.62;;;;;;;6.74;74.26;99312.58;1733120;81;21140;-91
2022/04/17 03:21:09;;;;;;;3.47;1.60;;;;;;;6.75;74.20;99324.20;1745523;79;21110;-90
2022/04/17 03:23:37;;;;;;;3.15;1.82;;;;;;;6.75;74.10;99325.50;1731458;80;21090;-89
2022/04/17 03:26:03;;;;;;;5.53;1.87;;;;;;;6.75;73.63;99327.23;1663547;86;21120;-91
2022/04/17 03:28:30;;;;;;;3.80;1.98;;;;;;;6.66;74.49;99337.16;1686624;85;21039;-90
2022/04/17 03:30:57;;;;;;;3.50;1.95;;;;;;;6.66;73.74;99335.88;1707430;84;20966;-91
2022/04/17 03:33:24;;;;;;;4.08;2.00;;;;;;;6.62;73.86;99337.20;1694778;84;21006;-90
2022/04/17 03:35:51;;;;;;;2.75;1.50;;;;;;;6.58;73.24;99338.94;1715879;84;20984;-91
2022/04/17 03:38:18;;;;;;;3.52;1.82;;;;;;;6.49;74.21;99329.52;1771612;80;21052;-90
2022/04/17 03:40:44;;;;;;;2.58;1.70;;;;;;;6.48;73.56;99339.41;1777876;79;21015;-90
2022/04/17 03:43:11;;;;;;;2.58;1.42;;;;;;;6.45;74.13;99332.98;1777874;81;21035;-90
2022/04/17 03:45:38;;;;;;;3.35;1.57;;;;;;;6.45;73.81;99343.31;1696220;79;21417;-88
2022/04/17 03:48:06;;;;;;;3.58;1.70;;;;;;;6.40;74.07;99346.34;1694778;84;21074;-90
2022/04/17 03:50:33;;;;;;;3.15;1.70;;;;;;;6.46;73.48;99339.85;1711726;81;21522;-88
2022/04/17 03:53:00;;;;;;;3.58;2.08;;;;;;;6.40;74.05;99348.06;1697105;82;21018;-85
2022/04/17 03:55:27;;;;;;;3.85;1.95;;;;;;;6.43;73.94;99348.92;1711199;84;21605;-87
2022/04/17 03:57:54;;;;;;;3.60;1.80;;;;;;;6.44;73.92;99358.81;1716966;83;20948;-89
2022/04/17 04:00:21;;;;;;;2.50;1.60;;;;;;;6.48;73.85;99356.20;1720319;82;21132;-85
2022/04/17 04:02:51;;;;;;;3.40;1.72;;;;;;;6.47;74.19;99360.11;1687429;82;21084;-87
2022/04/17 04:05:21;;;;;;;4.10;2.02;;;;;;;6.54;73.95;99364.36;1686442;81;21047;-85
2022/04/17 04:07:48;;;;;;;2.92;1.80;;;;;;;6.53;73.77;99355.76;1651417;82;21075;-86
2022/04/17 04:10:15;;;;;;;3.00;1.92;;;;;;;6.55;73.45;99360.48;1687212;82;21111;-90
2022/04/17 04:12:43;;;;;;;5.67;2.40;;;;;;;6.55;73.44;99355.76;1700756;81;21579;-89
2022/04/17 04:15:09;;;;;;;4.03;2.20;;;;;;;6.51;73.47;99358.78;1680824;85;21008;-90
2022/04/17 04:17:36;;;;;;;5.85;2.37;;;;;;;6.50;73.43;99359.63;1686961;84;21024;-89
2022/04/17 04:20:05;;;;;;;4.70;2.85;;;;;;;6.48;73.61;99362.66;1740672;81;21039;-89
2022/04/17 04:22:32;;;;;;;3.95;2.27;;;;;;;6.47;73.14;99362.69;1720360;80;21034;-90
2022/04/17 04:24:58;;;;;;;4.10;2.10;;;;;;;6.43;73.58;99367.00;1743598;82;21169;-89
2022/04/17 04:30:10;;;;;;;3.90;2.20;;;;;;;6.46;73.13;99381.62;1750389;80;21113;-90
2022/04/17 04:32:37;;;;;;;4.22;2.27;;;;;;;6.44;72.59;99377.73;1737830;82;21050;-89
2022/04/17 04:35:05;;;;;;;3.75;2.00;;;;;;;6.41;73.36;99373.05;1737471;81;21013;-92
2022/04/17 04:37:32;;;;;;;4.17;2.02;;;;;;;6.44;72.44;99376.89;1751593;78;21054;-91
2022/04/17 04:39:59;;;;;;;4.90;1.98;;;;;;;6.43;73.34;99375.19;1715025;80;21103;-91
2022/04/17 04:42:26;;;;;;;3.33;1.92;;;;;;;6.45;72.96;99372.17;1741425;81;21159;-89
2022/04/17 04:47:43;;;;;;;3.98;2.20;;;;;;;6.42;73.08;99356.23;1683060;84;21108;-90
2022/04/17 04:50:09;;;;;;;3.60;2.12;;;;;;;6.46;73.43;99361.80;1714760;80;21086;-90
2022/04/17 04:52:37;;;;;;;3.85;2.30;;;;;;;6.37;74.27;99357.98;1716419;82;20993;-90
2022/04/17 04:55:10;;;;;;;3.42;2.25;;;;;;;6.37;74.56;99363.16;1694552;80;21169;-90
2022/04/17 04:57:37;;;;;;;4.00;1.95;;;;;;;6.44;74.45;99373.02;1718023;79;21098;-89
2022/04/17 05:00:09;;;;;;;4.92;2.10;;;;;;;6.45;74.15;99378.63;1733173;82;21036;-90
2022/04/17 05:02:37;;;;;;;4.75;2.60;;;;;;;6.48;74.22;99393.65;1695984;82;21745;-90
2022/04/17 05:05:06;;;;;;;3.72;2.25;;;;;;;6.55;74.00;99392.77;1718965;82;21047;-90
2022/04/17 05:07:34;;;;;;;6.17;2.95;;;;;;;6.59;73.39;99398.80;1717202;80;21086;-90
2022/04/17 05:10:01;;;;;;;4.45;2.62;;;;;;;6.57;72.79;99394.92;1705782;83;21047;-89
2022/04/17 05:12:27;;;;;;;5.62;2.75;;;;;;;6.50;72.09;99389.34;1685333;85;20986;-89
2022/04/17 05:14:54;;;;;;;4.47;2.47;;;;;;;6.47;72.49;99395.83;1667600;84;21031;-89
2022/04/17 05:17:21;;;;;;;4.12;2.30;;;;;;;6.51;71.38;99390.22;1676676;84;20991;-91
2022/04/17 05:19:49;;;;;;;4.80;2.20;;;;;;;6.41;71.08;99401.45;1714919;82;21110;-91
2022/04/17 05:22:16;;;;;;;3.62;2.08;;;;;;;6.36;71.12;99406.61;1702098;80;21098;-92
2022/04/17 05:24:44;;;;;;;4.65;2.25;;;;;;;6.35;70.66;99404.91;1716991;79;21649;-89
2022/04/17 05:27:12;;;;;;;3.77;2.22;;;;;;;6.28;69.60;99407.92;1742843;80;21638;-92
2022/04/17 05:29:40;;;;;;;4.83;2.47;;;;;;;6.27;70.21;99406.66;1738168;80;21154;-91
2022/04/17 05:32:08;;;;;;;3.33;1.87;;;;;;;6.31;70.24;99407.08;1729269;80;21137;-91
2022/04/17 05:34:35;;;;;;;3.12;1.90;;;;;;;6.28;69.32;99410.50;1730072;83;21533;-92
2022/04/17 05:37:03;;;;;;;3.17;1.95;;;;;;;6.30;69.06;99417.81;1759057;81;21662;-90
2022/04/17 05:39:30;;;;;;;3.80;1.72;;;;;;;6.25;68.57;99404.52;1672403;77;21092;-88
2022/04/17 05:41:59;;;;;;;3.52;1.87;;;;;;;6.21;66.99;99406.23;1706590;82;21493;-90
2022/04/17 05:44:27;;;;;;;4.12;2.22;;;;;;;6.23;67.80;99388.13;1717185;80;21099;-83
2022/04/17 05:46:56;;;;;;;3.52;2.17;;;;;;;6.24;68.36;99384.70;1698626;84;21051;-81
2022/04/17 05:49:23;;;;;;;3.20;1.80;;;;;;;6.24;67.84;99386.84;1698419;82;21098;-83
2022/04/17 05:51:52;;;;;;;2.95;1.75;;;;;;;6.22;67.95;99414.39;1697971;82;21528;-82
2022/04/17 05:54:21;;;;;;;3.87;2.40;;;;;;;6.21;67.78;99415.68;1697712;84;21075;-83
2022/04/17 05:56:48;;;;;;;4.37;2.22;;;;;;;6.17;67.44;99414.41;1719237;78;21110;-89
2022/04/17 05:59:15;;;;;;;3.77;2.15;;;;;;;5.88;67.36;99369.27;1760960;80;21020;-89
2022/04/17 06:01:41;;;;;;;4.22;2.02;;;;;;;6.16;67.47;99409.25;1762141;81;21032;-91
2022/04/17 06:04:08;;;;;;;3.60;2.27;;;;;;;6.16;67.93;99410.09;1761924;80;20989;-90
2022/04/17 06:06:35;;;;;;;4.92;2.40;;;;;;;6.20;68.39;99407.52;1772715;77;21523;-89
2022/04/17 06:09:02;;;;;;;4.70;2.40;;;;;;;6.20;68.49;99416.56;1775856;79;20998;-89
2022/04/17 06:11:29;;;;;;;3.50;2.17;;;;;;;6.29;68.08;99410.09;1760449;79;21090;-91
2022/04/17 06:13:56;;;;;;;4.72;2.00;;;;;;;6.32;68.48;99419.11;1796763;79;21046;-90
2022/04/17 06:16:23;;;;;;;3.80;2.00;;;;;;;6.36;68.53;99425.98;1769957;81;21059;-91
2022/04/17 06:18:49;;;;;;;5.50;2.15;;;;;;;6.34;68.49;99419.96;1769667;80;21016;-91
2022/04/17 06:21:18;;;;;;;4.72;2.02;;;;;;;6.34;68.65;99419.96;1769535;80;21020;-90
2022/04/17 06:23:45;;;;;;;4.15;2.52;;;;;;;6.46;68.74;99421.20;1763953;76;21059;-90
2022/04/17 06:26:11;;;;;;;4.87;2.60;;;;;;;6.41;68.77;99414.37;1713558;78;21085;-90
2022/04/17 06:28:38;;;;;;;8.13;2.50;;;;;;;6.41;69.08;99414.37;1758487;80;21086;-89
2022/04/17 06:31:07;;;;;;;6.87;2.83;;;;;;;6.43;69.16;99428.98;1770509;81;21039;-90
2022/04/17 06:33:33;;;;;;;4.67;2.20;;;;;;;6.49;69.08;99430.70;1764354;78;21109;-88
2022/04/17 06:36:00;;;;;;;4.37;2.60;;;;;;;6.48;68.82;99441.44;1722706;77;21145;-88
2022/04/17 06:38:28;;;;;;;4.53;2.58;;;;;;;6.52;68.80;99439.70;1686402;84;21028;-88
2022/04/17 06:40:55;;;;;;;5.03;2.60;;;;;;;6.53;68.95;99435.84;1725401;80;22552;-88
2022/04/17 06:43:21;;;;;;;4.25;2.52;;;;;;;6.63;68.33;99441.83;1785020;80;21021;-88
2022/04/17 06:45:48;;;;;;;4.83;3.02;;;;;;;6.53;68.97;99445.31;1794945;79;22293;-90
2022/04/17 06:48:19;;;;;;;5.33;2.75;;;;;;;6.54;69.36;99440.12;1748959;82;21017;-91
2022/04/17 06:50:47;;;;;;;4.17;2.45;;;;;;;6.51;70.13;99446.61;1761921;80;21086;-90
2022/04/17 06:53:15;;;;;;;5.17;2.35;;;;;;;6.50;69.34;99447.45;1793912;77;21062;-90
2022/04/17 06:55:43;;;;;;;4.62;2.83;;;;;;;6.52;69.72;99448.31;1754236;80;21015;-90
2022/04/17 06:58:10;;;;;;;6.25;2.50;;;;;;;6.57;69.95;99454.33;1750121;80;22214;-89
2022/04/17 07:00:38;;;;;;;4.35;2.55;;;;;;;6.61;69.46;99446.59;1772946;80;20990;-90
2022/04/17 07:03:04;;;;;;;3.77;2.45;;;;;;;6.62;69.58;99449.58;1755971;79;21146;-88
2022/04/17 07:05:31;;;;;;;5.12;2.50;;;;;;;6.60;69.61;99450.02;1743902;82;21519;-89
2022/04/17 07:08:01;;;;;;;5.00;2.22;;;;;;;6.53;69.81;99462.11;1745051;82;21053;-89
2022/04/17 07:10:30;;;;;;;4.35;2.55;;;;;;;6.63;70.30;99460.36;1743531;80;21091;-89
2022/04/17 07:12:57;;;;;;;4.58;2.60;;;;;;;6.66;70.40;99465.50;1759922;78;21288;-91
2022/04/17 07:15:25;;;;;;;4.45;2.80;;;;;;;6.62;69.50;99456.89;1706206;83;21027;-91
2022/04/17 07:17:54;;;;;;;4.00;2.60;;;;;;;6.64;69.02;99460.77;1741451;81;21044;-90
2022/04/17 07:20:24;;;;;;;4.35;2.95;;;;;;;6.57;68.73;99460.79;1786461;80;21120;-92
2022/04/17 07:22:51;;;;;;;3.40;2.25;;;;;;;6.56;68.51;99461.67;1794128;77;21126;-92
2022/04/17 07:25:19;;;;;;;4.40;2.62;;;;;;;6.53;68.90;99461.67;1786938;78;21230;-91
2022/04/17 07:27:48;;;;;;;4.53;2.67;;;;;;;6.54;68.65;99460.78;1779885;78;21122;-88
2022/04/17 07:30:19;;;;;;;3.67;2.37;;;;;;;6.61;68.95;99468.55;1806505;79;21668;-90
2022/04/17 07:32:52;;;;;;;3.75;2.55;;;;;;;6.65;67.75;99465.94;1814479;79;21058;-90
2022/04/17 07:35:20;;;;;;;5.07;2.93;;;;;;;6.66;68.33;99466.34;1822165;79;21074;-90
2022/04/17 07:38:02;;;;;;;5.20;3.17;;;;;;;6.65;67.76;99461.22;1726768;79;21079;-89
2022/04/17 07:40:32;;;;;;;7.10;2.90;;;;;;;6.77;68.04;99463.75;1733292;80;21830;-88
2022/04/17 07:43:02;;;;;;;5.78;2.75;;;;;;;6.80;68.15;99465.45;1771480;78;21577;-89
2022/04/17 07:45:33;;;;;;;5.60;2.83;;;;;;;6.88;67.52;99472.30;1731888;80;21132;-90
2022/04/17 07:48:00;;;;;;;4.78;2.75;;;;;;;6.85;66.79;99464.57;1762390;79;21156;-92
2022/04/17 07:50:32;;;;;;;4.83;3.00;;;;;;;6.92;66.49;99456.34;1741307;79;21135;-89
2022/04/17 07:53:00;;;;;;;4.42;2.90;;;;;;;6.95;66.48;99463.66;1789939;79;21083;-90
2022/04/17 07:55:28;;;;;;;5.60;3.10;;;;;;;7.11;67.48;99464.45;1788394;80;21527;-92
2022/04/17 07:58:12;;;;;;;5.10;3.10;;;;;;;7.23;67.14;99460.94;1747363;82;21116;-89
2022/04/17 08:00:45;;;;;;;4.65;2.87;;;;;;;7.30;65.49;99461.75;1752770;81;21090;-90
2022/04/17 08:06:09;;;;;;;5.15;2.95;;;;;;;7.28;65.30;99463.08;1742570;81;21178;-91
2022/04/17 08:08:39;;;;;;;5.65;3.05;;;;;;;7.22;64.64;99464.81;1648865;86;21089;-89
2022/04/17 08:11:08;;;;;;;3.50;2.40;;;;;;;7.27;65.09;99456.61;1664655;85;21080;-89
2022/04/17 08:13:36;;;;;;;3.98;2.70;;;;;;;7.26;65.00;99463.52;1732744;80;21260;-88
2022/04/17 08:16:05;;;;;;;6.53;2.60;;;;;;;7.24;65.40;99476.02;1751683;77;21578;-91
2022/04/17 08:18:33;;;;;;;4.53;3.05;;;;;;;7.24;65.66;99468.25;1776615;80;21071;-90
2022/04/17 08:21:01;;;;;;;4.08;2.62;;;;;;;7.20;66.05;99461.38;1760253;78;21041;-91
2022/04/17 08:23:28;;;;;;;4.60;2.77;;;;;;;7.32;66.04;99465.19;1760160;76;21118;-89
2022/04/17 08:25:55;;;;;;;4.92;2.98;;;;;;;7.37;65.50;99459.13;1793994;78;21140;-86
2022/04/17 08:28:22;;;;;;;4.60;2.58;;;;;;;7.46;65.42;99467.69;1792725;79;21035;-91
2022/04/17 08:30:49;;;;;;;4.72;2.60;;;;;;;7.55;65.47;99466.34;1726356;79;21092;-89
2022/04/17 08:33:16;;;;;;;3.87;2.30;;;;;;;7.55;64.16;99466.34;1718855;82;21037;-91
2022/04/17 08:35:44;;;;;;;6.72;2.60;;;;;;;7.66;64.52;99464.95;1728042;81;21111;-91
2022/04/17 08:38:11;;;;;;;4.92;2.55;;;;;;;7.64;64.94;99468.88;1727805;79;21602;-91
2022/04/17 08:40:39;;;;;;;4.50;2.98;;;;;;;7.64;65.45;99466.70;1727583;83;20999;-88
2022/04/17 08:43:08;;;;;;;6.20;2.22;;;;;;;7.65;64.96;99469.73;1726254;80;21135;-88
2022/04/17 08:45:35;;;;;;;4.47;2.53;;;;;;;7.61;64.39;99463.70;1763818;80;21790;-87
2022/04/17 08:48:04;;;;;;;4.30;2.22;;;;;;;7.64;64.98;99466.29;1716447;78;21095;-88
2022/04/17 08:50:32;;;;;;;4.08;2.40;;;;;;;7.61;65.37;99470.18;1727611;77;21168;-91
2022/04/17 08:53:00;;;;;;;4.33;2.47;;;;;;;7.60;65.04;99468.48;1724160;79;21087;-90
2022/04/17 08:55:27;;;;;;;4.65;2.60;;;;;;;7.61;64.95;99472.77;1721581;79;21126;-90
2022/04/17 08:57:53;;;;;;;7.92;3.55;;;;;;;7.56;65.77;99468.08;1711664;83;21023;-90
2022/04/17 09:00:20;;;;;;;6.55;2.62;;;;;;;7.65;66.82;99473.17;1701888;83;21062;-87
2022/04/17 09:02:49;;;;;;;5.00;3.08;;;;;;;7.71;66.24;99467.94;1722254;79;21075;-88
2022/04/17 09:05:20;;;;;;;4.42;2.80;;;;;;;7.80;66.21;99467.03;1746533;78;21600;-87
2022/04/17 09:07:53;;;;;;;4.67;2.90;;;;;;;7.90;66.62;99466.53;1738855;81;21677;-90
2022/04/17 09:10:28;;;;;;;;;;;;;;;8.04;66.84;99468.55;1728242;78;21201;-89
2022/04/17 09:13:02;;;;;;;4.95;2.83;;;;;;;8.14;67.14;99465.45;1738030;79;20143;-88
2022/04/17 09:15:35;;;;;;;8.43;5.20;;;;;;;8.23;66.93;99469.23;1748933;81;21662;-88
2022/04/17 09:18:07;;;;;;;6.80;3.33;;;;;;;8.44;66.89;99460.42;1743000;80;21156;-89
2022/04/17 09:20:34;;;;;;;4.22;2.90;;;;;;;8.63;66.75;99464.95;1726252;80;21143;-88
2022/04/17 09:23:01;;;;;;;6.15;2.98;;;;;;;8.82;66.48;99459.58;1672922;86;21542;-91
2022/04/17 09:25:29;;;;;;;4.75;3.05;;;;;;;8.95;65.84;99457.23;1696505;80;21107;-89
2022/04/17 09:28:06;;;;;;;9.60;3.12;;;;;;;9.17;66.00;99450.02;1692497;79;21099;-90
2022/04/17 09:30:39;;;;;;;5.42;3.37;;;;;;;9.39;65.47;99441.94;1714515;81;21183;-89
2022/04/17 09:33:10;;;;;;;5.72;2.87;;;;;;;9.62;64.02;99442.45;1701655;84;21075;-87
2022/04/17 09:35:37;;;;;;;4.40;3.00;;;;;;;9.69;64.35;99441.94;1699578;85;21053;-88
2022/04/17 09:38:06;;;;;;;3.85;2.70;;;;;;;9.93;65.33;99437.63;1728744;83;21067;-88
2022/04/17 09:40:36;;;;;;;5.05;2.95;;;;;;;10.22;63.48;99437.55;1715674;84;21037;-86
2022/04/17 09:43:14;;;;;;;4.30;2.50;;;;;;;10.37;63.50;99435.61;1698212;85;21028;-88
2022/04/17 09:46:02;;;;;;;6.30;2.58;;;;;;;10.59;62.98;99438.64;1715575;84;20994;-88
2022/04/17 09:48:38;;;;;;;4.65;2.85;;;;;;;10.83;62.47;99441.19;1698261;85;20993;-88
2022/04/17 09:51:25;;;;;;;3.77;2.45;;;;;;;11.06;61.25;99432.47;1737896;82;21026;-88
2022/04/17 09:54:05;;;;;;;9.00;3.10;;;;;;;11.27;60.75;99423.77;1728526;82;21066;-88
2022/04/17 09:56:41;;;;;;;4.42;3.00;;;;;;;11.34;59.16;99419.69;1696765;85;21123;-88
2022/04/17 09:59:24;;;;;;;6.78;3.87;;;;;;;11.48;57.59;99423.27;1697186;85;20994;-88
2022/04/17 10:01:57;;;;;;;4.85;2.85;;;;;;;11.58;58.62;99416.10;1695921;84;20995;-87
2022/04/17 10:04:26;;;;;;;41.92;13.50;;;;;;;11.61;54.35;99416.46;1726125;83;21083;-88
2022/04/17 10:06:55;;;;;;;125.45;34.05;;;;;;;11.23;57.45;99422.97;1725990;82;21105;-88
2022/04/17 10:09:22;;;;;;;179.32;41.63;;;;;;;11.02;56.77;99420.41;1726246;80;21037;-88
2022/04/17 10:11:51;;;;;;;469.95;111.65;;;;;;;10.90;56.79;99414.14;1726219;83;21001;-88
2022/04/17 10:14:19;;;;;;;247.05;66.22;;;;;;;10.90;56.20;99423.25;1726138;82;21017;-88
2022/04/17 10:16:48;;;;;;;589.73;112.68;;;;;;;10.91;57.26;99415.88;1726032;83;20998;-87
2022/04/17 10:19:19;;;;;;;200.87;63.00;;;;;;;10.79;55.62;99409.19;1725999;80;21014;-88
2022/04/17 10:21:47;;;;;;;74.87;24.52;;;;;;;10.82;56.56;99410.41;1726179;82;20982;-87
2022/04/17 10:24:19;;;;;;;22.10;11.05;;;;;;;10.97;56.94;99417.49;1726245;82;21051;-88
2022/04/17 10:26:51;;;;;;;18.12;7.50;;;;;;;10.97;56.29;99420.09;1721770;81;21099;-90
2022/04/17 10:29:31;;;;;;;12.95;6.40;;;;;;;10.86;55.25;99421.19;1758748;79;21025;-87
2022/04/17 10:32:25;;;;;;;25.25;11.08;;;;;;;10.51;55.96;99420.14;1784897;80;20994;-88
2022/04/17 10:35:38;;;;;;;11.08;6.17;;;;;;;10.48;56.81;99422.78;1694498;85;21095;-92
2022/04/17 10:38:27;;;;;;;7.47;3.45;;;;;;;10.40;56.33;99416.88;1672704;86;21093;-89
2022/04/17 10:43:50;;;;;;;14.90;7.90;;;;;;;10.08;59.68;99419.60;1751932;82;21020;-90
2022/04/17 10:46:21;;;;;;;6.20;3.80;;;;;;;9.77;62.57;99412.80;1696000;83;22215;-91
2022/04/17 10:48:55;;;;;;;9.05;4.03;;;;;;;9.65;61.11;99416.45;1691634;82;21049;-91
2022/04/17 10:51:29;;;;;;;8.78;3.58;;;;;;;9.43;61.19;99407.27;1779813;80;21135;-92
2022/04/17 10:54:10;;;;;;;4.25;2.45;;;;;;;9.38;61.89;99414.30;1668317;85;21139;-91
2022/04/17 10:56:43;;;;;;;5.08;2.58;;;;;;;9.36;61.39;99411.72;1716485;80;21113;-88
2022/04/17 10:59:22;;;;;;;8.50;2.87;;;;;;;9.39;60.96;99415.58;1691061;81;21075;-91
2022/04/17 11:02:02;;;;;;;4.35;2.55;;;;;;;9.41;61.12;99407.33;1701281;82;21606;-91
2022/04/17 11:04:53;;;;;;;6.72;3.30;;;;;;;9.54;61.99;99405.38;1718166;80;21109;-89
2022/04/17 11:07:27;;;;;;;9.65;3.75;;;;;;;9.78;62.51;99403.27;1731354;79;21105;-87
2022/04/17 11:10:18;;;;;;;8.88;4.30;;;;;;;10.02;62.08;99395.04;1722931;79;21068;-89
2022/04/17 11:12:57;;;;;;;7.53;3.47;;;;;;;10.09;59.63;99391.91;1776627;78;21059;-90
2022/04/17 11:15:28;;;;;;;7.40;3.52;;;;;;;10.20;59.28;99393.00;1768187;79;21093;-92
2022/04/17 11:17:58;;;;;;;7.40;3.90;;;;;;;10.23;59.10;99397.70;1727168;80;21095;-91
2022/04/17 11:20:28;;;;;;;8.45;3.42;;;;;;;10.28;57.42;99400.20;1716357;79;21134;-91
2022/04/17 11:22:54;;;;;;;5.10;3.00;;;;;;;10.26;57.96;99396.77;1669246;82;21142;-92
2022/04/17 11:25:21;;;;;;;37.00;21.02;;;;;;;10.39;57.75;99402.64;1655904;85;21017;-92
2022/04/17 11:27:50;;;;;;;30.15;11.50;;;;;;;10.40;58.19;99407.78;1678154;85;21108;-89
2022/04/17 11:30:25;;;;;;;9.05;4.45;;;;;;;10.28;57.98;99396.30;1681231;83;21040;-87
2022/04/17 11:32:53;;;;;;;5.20;2.45;;;;;;;10.27;58.76;99399.80;1681427;83;21044;-87
2022/04/17 11:35:23;;;;;;;11.30;5.65;;;;;;;10.34;58.57;99398.81;1681274;85;21033;-88
2022/04/17 11:38:07;;;;;;;7.30;4.45;;;;;;;10.47;59.66;99400.75;1681383;83;21052;-86
2022/04/17 11:40:38;;;;;;;3.70;2.20;;;;;;;10.63;58.74;99394.34;1681362;84;20989;-88
2022/04/17 11:43:12;;;;;;;3.67;2.10;;;;;;;10.83;59.40;99393.92;1681188;85;21032;-88
2022/04/17 11:45:40;;;;;;;2.72;1.40;;;;;;;10.97;59.01;99396.68;1681494;84;21068;-88
2022/04/17 11:48:14;;;;;;;5.80;3.08;;;;;;;11.07;58.43;99399.48;1677921;84;21009;-88
2022/04/17 11:50:42;;;;;;;6.75;3.37;;;;;;;11.13;58.48;99399.34;1655025;87;21032;-89
2022/04/17 11:53:17;;;;;;;7.20;3.25;;;;;;;11.23;58.10;99396.94;1654766;87;21059;-88
2022/04/17 11:55:45;;;;;;;7.10;3.05;;;;;;;11.25;57.33;99395.16;1654858;87;21064;-88
2022/04/17 11:58:24;;;;;;;7.78;3.45;;;;;;;11.27;57.06;99392.53;1726795;81;21096;-89
2022/04/17 12:00:59;;;;;;;5.12;2.67;;;;;;;11.37;55.75;99393.17;1759178;79;21078;-91
2022/04/17 12:03:48;;;;;;;6.53;2.75;;;;;;;11.43;56.46;99386.52;1804051;80;21491;-87
2022/04/17 12:06:16;;;;;;;6.45;3.25;;;;;;;11.57;56.29;99379.22;1752621;81;21212;-91
2022/04/17 12:08:43;;;;;;;8.93;3.50;;;;;;;11.70;55.68;99377.19;1724234;80;21103;-92